Pagina principale
METAR-TAF:

METAR-TAF

Aeroporti :

Győr, Ungheria

Aeroporto di Győr-Pér

latitudine: 47-37-28N, longitudine: 017-48-49E, altezza: 129 m

Osservazione

Il bollettino è stato emesso 26 minuti fa, alle 07:45 UTC
Vento 7 kt da nord, variando fra nord-ovest e nord/nord-est
Temperature 20°C
Umidità 56%
Pressione 1021 hPa
Visibilità 10 km o più
nessuna nube inferiore a 1500 m e nessun cumulonembo

METAR: LHPR 270745Z 36007KT 320V030 CAVOK 20/11 Q1021 RMK BLU

Ora: 10:11 (08:11 UTC)

Previsione

Il bollettino è stato emesso 2 ore e 56 minuti fa, alle 05:15 UTC
Previsione valida dal 27 alle 06 UTC al 27 alle 15 UTC
Vento 3 kt da direzioni variabili
Visibilità 10 km o più
nessuna nube inferiore a 1500 m e nessun cumulonembo
Evoluzione graduale
dal 27 alle 06 UTC al 27 alle 09 UTC
Vento 12 kt da nord/nord-ovest
Nubi sparse ad un'altezza di 3000 ft

TAF: LHPR 270515Z 2706/2715 VRB03KT CAVOK BECMG 2706/2709 34012KT SCT030

Osservazioni e previsioni meteorologiche di più di 4000 aeroporti (messaggi METAR e TAF).

Le stazioni disponibili sono rappresentate dai dischi gialli e rossi sulla carta.

Puntare il mouse per vedere il nome della stazione.

Clicca sopra per visualizzare le osservazioni e previsioni meteorologiche.

Per cambiare la mappa : fare clic sui pulsanti verdi con una croce nera per ingrandire, il pulsante verde con un trattino per diminuire, o sulla freccia verde per le mappe adiacenti.


METAR-TAF: